Time;durP1;ratioP1;P1;durP2;ratioP2;P2;SDS_P1;SDS_P2;PMS_P1;PMS_P2;Temp;Humidity;BMP_temperature;BMP_pressure;BME280_temperature;BME280_humidity;BME280_pressure;Samples;Min_cycle;Max_cycle;Signal;HPM_P1;HPM_P2
2022/08/17 00:00:46;;;;;;;34.13;26.70;;;;;;;;;;5007256;28;92834;-72
2022/08/17 00:03:28;;;;;;;30.35;26.13;;;;;;;;;;5009722;28;94056;-72
2022/08/17 00:06:03;;;;;;;30.65;25.45;;;;;;;;;;4995733;28;92348;-72
2022/08/17 00:08:32;;;;;;;29.48;26.48;;;;;;;;;;4995157;28;94140;-72
2022/08/17 00:10:59;;;;;;;28.92;26.10;;;;;;;;;;4995314;28;94241;-71
2022/08/17 00:13:28;;;;;;;28.83;25.70;;;;;;;;;;4996374;28;91676;-72
2022/08/17 00:15:59;;;;;;;29.35;26.30;;;;;;;;;;4999906;28;92764;-72
2022/08/17 00:18:27;;;;;;;33.45;26.17;;;;;;;;;;5015812;28;93526;-72
2022/08/17 00:21:14;;;;;;;30.13;24.13;;;;;;;;;;5014293;28;94876;-72
2022/08/17 00:23:48;;;;;;;30.17;25.60;;;;;;;;;;5012702;28;95649;-72
2022/08/17 00:26:15;;;;;;;28.17;24.02;;;;;;;;;;5018927;28;94623;-72
2022/08/17 00:29:02;;;;;;;34.03;22.95;;;;;;;;;;5014799;28;93214;-72
2022/08/17 00:31:29;;;;;;;25.90;23.40;;;;;;;;;;5012006;28;94099;-72
2022/08/17 00:33:55;;;;;;;26.38;23.83;;;;;;;;;;5000963;28;92507;-72
2022/08/17 00:36:22;;;;;;;24.52;22.08;;;;;;;;;;4994861;28;94039;-72
2022/08/17 00:38:49;;;;;;;24.92;22.65;;;;;;;;;;4995109;28;92630;-71
2022/08/17 00:41:17;;;;;;;23.25;20.88;;;;;;;;;;4995670;28;92353;-72
2022/08/17 00:43:52;;;;;;;23.15;20.85;;;;;;;;;;4994541;28;92877;-72
2022/08/17 00:46:19;;;;;;;23.05;20.88;;;;;;;;;;4993417;28;96965;-71
2022/08/17 00:48:46;;;;;;;23.73;21.35;;;;;;;;;;5005567;28;92883;-72
2022/08/17 00:51:32;;;;;;;22.88;20.52;;;;;;;;;;4994405;28;94474;-72
2022/08/17 00:54:12;;;;;;;22.52;19.55;;;;;;;;;;4994941;28;92904;-72
2022/08/17 00:56:41;;;;;;;21.45;19.45;;;;;;;;;;4994992;28;94192;-72
2022/08/17 00:59:09;;;;;;;21.98;19.52;;;;;;;;;;4994175;28;93905;-72
2022/08/17 01:01:36;;;;;;;21.73;19.52;;;;;;;;;;4995060;28;92438;-72
2022/08/17 01:04:04;;;;;;;22.02;19.95;;;;;;;;;;5001420;28;93984;-72
2022/08/17 01:06:30;;;;;;;23.42;18.00;;;;;;;;;;5005286;28;94123;-72
2022/08/17 01:08:58;;;;;;;21.08;18.65;;;;;;;;;;5017898;28;92457;-71
2022/08/17 01:11:25;;;;;;;21.67;18.35;;;;;;;;;;5011884;28;95852;-72
2022/08/17 01:13:52;;;;;;;20.55;18.48;;;;;;;;;;5013968;28;92411;-72
2022/08/17 01:16:23;;;;;;;19.48;17.58;;;;;;;;;;5014540;28;93595;-72
2022/08/17 01:18:51;;;;;;;19.50;17.43;;;;;;;;;;4981958;28;92588;-71
2022/08/17 01:21:30;;;;;;;20.05;17.33;;;;;;;;;;4997380;28;92429;-72
2022/08/17 01:23:56;;;;;;;20.40;18.38;;;;;;;;;;5008543;28;93243;-73
2022/08/17 01:26:22;;;;;;;19.35;17.65;;;;;;;;;;5013620;28;93461;-75
2022/08/17 01:28:49;;;;;;;19.15;17.40;;;;;;;;;;5014672;28;91688;-72
2022/08/17 01:31:22;;;;;;;19.55;17.42;;;;;;;;;;5017890;28;93015;-72
2022/08/17 01:33:48;;;;;;;21.08;17.55;;;;;;;;;;5013688;28;92385;-71
2022/08/17 01:36:15;;;;;;;23.10;18.10;;;;;;;;;;5003057;28;95350;-72
2022/08/17 01:38:41;;;;;;;19.85;17.25;;;;;;;;;;4993924;28;93602;-72
2022/08/17 01:41:11;;;;;;;19.10;17.20;;;;;;;;;;5008520;28;92472;-71
2022/08/17 01:43:46;;;;;;;22.75;18.05;;;;;;;;;;5013773;28;93178;-72
2022/08/17 01:46:19;;;;;;;19.42;17.48;;;;;;;;;;5011310;28;93521;-72
2022/08/17 01:48:46;;;;;;;20.52;18.50;;;;;;;;;;4993832;28;93277;-71
2022/08/17 01:51:14;;;;;;;19.63;17.92;;;;;;;;;;4997723;28;94189;-71
2022/08/17 01:53:41;;;;;;;19.77;17.83;;;;;;;;;;4996611;28;92642;-71
2022/08/17 01:56:09;;;;;;;20.90;17.50;;;;;;;;;;4994265;28;92446;-72
2022/08/17 01:58:37;;;;;;;19.27;17.10;;;;;;;;;;5012319;28;124020;-71
2022/08/17 02:01:04;;;;;;;22.83;18.52;;;;;;;;;;5011971;28;95190;-71
2022/08/17 02:03:33;;;;;;;21.15;18.60;;;;;;;;;;5002628;28;95491;-71
2022/08/17 02:05:59;;;;;;;22.10;19.48;;;;;;;;;;4999131;28;94114;-72
2022/08/17 02:08:27;;;;;;;25.30;20.48;;;;;;;;;;5004961;28;93210;-72
2022/08/17 02:11:16;;;;;;;25.88;20.27;;;;;;;;;;5014076;28;93864;-71
2022/08/17 02:13:43;;;;;;;23.42;21.27;;;;;;;;;;5008769;28;93505;-72
2022/08/17 02:16:10;;;;;;;24.08;20.73;;;;;;;;;;4989650;28;92740;-71
2022/08/17 02:18:38;;;;;;;25.60;22.25;;;;;;;;;;4974692;28;93473;-71
2022/08/17 02:21:04;;;;;;;24.38;21.98;;;;;;;;;;4994549;28;92489;-71
2022/08/17 02:23:33;;;;;;;23.85;21.45;;;;;;;;;;5001346;28;94273;-71
2022/08/17 02:26:00;;;;;;;26.05;21.88;;;;;;;;;;5011350;28;95580;-71
2022/08/17 02:28:27;;;;;;;24.30;21.73;;;;;;;;;;5013028;28;93013;-71
2022/08/17 02:30:54;;;;;;;29.95;23.33;;;;;;;;;;5006984;28;92893;-71
2022/08/17 02:33:29;;;;;;;23.15;20.67;;;;;;;;;;4993688;28;94139;-72
2022/08/17 02:36:08;;;;;;;26.27;22.40;;;;;;;;;;4992887;28;92747;-71
2022/08/17 02:38:36;;;;;;;20.58;18.58;;;;;;;;;;4998055;28;93237;-71
2022/08/17 02:41:03;;;;;;;23.23;19.92;;;;;;;;;;5012614;28;92557;-72
2022/08/17 02:43:29;;;;;;;22.58;20.58;;;;;;;;;;5013333;28;93345;-72
2022/08/17 02:45:56;;;;;;;22.83;20.50;;;;;;;;;;5013048;28;94227;-71
2022/08/17 02:48:22;;;;;;;20.83;18.80;;;;;;;;;;5002990;28;92484;-72
2022/08/17 02:50:56;;;;;;;23.08;20.45;;;;;;;;;;4990863;28;94809;-71
2022/08/17 02:53:23;;;;;;;23.33;21.08;;;;;;;;;;4994366;28;94097;-72
2022/08/17 02:55:51;;;;;;;23.00;20.70;;;;;;;;;;5007321;28;92469;-72
2022/08/17 02:58:18;;;;;;;23.67;19.67;;;;;;;;;;5019113;28;93063;-71
2022/08/17 03:01:02;;;;;;;21.50;18.67;;;;;;;;;;5016785;28;92753;-72
2022/08/17 03:03:28;;;;;;;19.42;17.67;;;;;;;;;;5006089;28;92873;-72
2022/08/17 03:05:55;;;;;;;19.85;17.48;;;;;;;;;;4995955;28;94648;-72
2022/08/17 03:08:22;;;;;;;21.60;16.63;;;;;;;;;;4996930;28;91659;-72
2022/08/17 03:10:49;;;;;;;16.75;15.32;;;;;;;;;;4996355;28;92775;-72
2022/08/17 03:13:15;;;;;;;16.90;15.35;;;;;;;;;;4997673;28;94208;-72
2022/08/17 03:15:44;;;;;;;17.48;15.25;;;;;;;;;;4994619;28;94767;-72
2022/08/17 03:18:11;;;;;;;15.85;13.40;;;;;;;;;;4995892;28;95567;-72
2022/08/17 03:20:50;;;;;;;21.50;13.60;;;;;;;;;;4999536;28;94447;-72
2022/08/17 03:23:17;;;;;;;14.65;13.25;;;;;;;;;;4997912;28;93221;-72
2022/08/17 03:25:49;;;;;;;;;;;;;;;;;;4996114;28;94485;-72
2022/08/17 03:28:16;;;;;;;12.32;11.32;;;;;;;;;;5006614;28;120577;-72
2022/08/17 03:30:42;;;;;;;16.63;12.82;;;;;;;;;;5016141;28;93238;-71
2022/08/17 03:33:09;;;;;;;15.35;13.07;;;;;;;;;;5015846;28;92819;-72
2022/08/17 03:35:36;;;;;;;16.30;13.98;;;;;;;;;;5016041;28;92480;-72
2022/08/17 03:38:03;;;;;;;20.42;12.68;;;;;;;;;;5016414;28;94070;-71
2022/08/17 03:40:29;;;;;;;14.65;13.10;;;;;;;;;;4994816;28;96617;-72
2022/08/17 03:43:16;;;;;;;14.38;12.88;;;;;;;;;;5000381;28;92391;-71
2022/08/17 03:56:48;;;;;;;11.95;10.85;;;;;;;;;;4990110;28;92396;-72
2022/08/17 03:59:16;;;;;;;13.52;11.98;;;;;;;;;;5003027;28;93290;-72
2022/08/17 04:01:49;;;;;;;13.90;11.20;;;;;;;;;;4974843;28;93186;-72
2022/08/17 04:04:19;;;;;;;12.18;11.07;;;;;;;;;;4992875;28;92513;-72
2022/08/17 04:06:53;;;;;;;11.50;10.50;;;;;;;;;;4996370;28;94733;-71
2022/08/17 04:09:19;;;;;;;11.38;10.25;;;;;;;;;;4996026;28;92391;-72
2022/08/17 04:11:45;;;;;;;11.25;10.25;;;;;;;;;;4995730;28;93819;-72
2022/08/17 04:14:12;;;;;;;11.75;10.57;;;;;;;;;;4995224;28;93287;-72
2022/08/17 04:16:38;;;;;;;12.77;11.68;;;;;;;;;;5001558;28;92410;-72
2022/08/17 04:19:05;;;;;;;13.20;12.10;;;;;;;;;;4995396;28;93281;-72
2022/08/17 04:21:32;;;;;;;13.45;12.15;;;;;;;;;;4994841;28;94213;-72
2022/08/17 04:23:58;;;;;;;13.43;12.27;;;;;;;;;;4995654;28;91794;-72
2022/08/17 04:26:26;;;;;;;11.82;10.80;;;;;;;;;;4995595;28;92586;-72
2022/08/17 04:29:13;;;;;;;12.13;10.90;;;;;;;;;;4997905;28;94065;-72
2022/08/17 04:31:39;;;;;;;13.80;12.07;;;;;;;;;;4997309;28;94793;-72
2022/08/17 04:34:05;;;;;;;13.23;12.05;;;;;;;;;;5015199;28;94275;-72
2022/08/17 04:36:32;;;;;;;15.20;13.73;;;;;;;;;;5014617;28;92391;-72
2022/08/17 04:38:58;;;;;;;17.13;15.35;;;;;;;;;;5015173;28;92306;-72
2022/08/17 04:44:10;;;;;;;17.63;16.05;;;;;;;;;;5014381;28;92414;-72
2022/08/17 04:46:37;;;;;;;20.08;17.92;;;;;;;;;;5012769;28;93164;-72
2022/08/17 04:49:06;;;;;;;18.55;16.65;;;;;;;;;;4999864;28;93313;-72
2022/08/17 04:51:32;;;;;;;22.80;20.60;;;;;;;;;;4998210;28;92550;-72
2022/08/17 04:54:03;;;;;;;21.50;19.55;;;;;;;;;;4994600;28;93098;-72
2022/08/17 04:56:30;;;;;;;21.77;19.67;;;;;;;;;;4992746;28;94849;-72
2022/08/17 04:58:59;;;;;;;20.52;18.65;;;;;;;;;;4995060;28;95624;-72
2022/08/17 05:01:27;;;;;;;21.33;18.02;;;;;;;;;;4986812;28;94279;-72
2022/08/17 05:03:55;;;;;;;23.63;17.60;;;;;;;;;;5000210;28;92419;-72
2022/08/17 05:06:21;;;;;;;20.05;17.23;;;;;;;;;;5015118;28;94109;-72
2022/08/17 05:08:48;;;;;;;17.00;15.20;;;;;;;;;;5014369;28;93508;-72
2022/08/17 05:11:14;;;;;;;19.90;17.55;;;;;;;;;;5017185;28;92763;-72
2022/08/17 05:13:41;;;;;;;18.33;16.67;;;;;;;;;;5014951;28;93437;-72
2022/08/17 05:16:07;;;;;;;19.27;17.30;;;;;;;;;;5014834;28;92701;-72
2022/08/17 05:18:36;;;;;;;17.67;15.90;;;;;;;;;;5012507;28;93056;-72
2022/08/17 05:21:02;;;;;;;18.38;15.95;;;;;;;;;;5011850;28;95687;-72
2022/08/17 05:23:28;;;;;;;17.70;16.00;;;;;;;;;;4998070;28;93279;-71
2022/08/17 05:26:08;;;;;;;16.17;14.70;;;;;;;;;;4979410;28;95769;-70
2022/08/17 05:28:47;;;;;;;15.95;13.80;;;;;;;;;;4981416;28;93382;-70
2022/08/17 05:31:16;;;;;;;17.77;12.63;;;;;;;;;;4967890;28;92577;-71
2022/08/17 05:33:42;;;;;;;13.32;12.02;;;;;;;;;;4967682;28;95323;-70
2022/08/17 05:36:12;;;;;;;10.23;9.32;;;;;;;;;;4966567;28;94283;-70
2022/08/17 05:38:58;;;;;;;8.00;7.25;;;;;;;;;;4966942;28;95761;-70
2022/08/17 05:41:25;;;;;;;8.50;7.15;;;;;;;;;;4987483;28;93308;-70
2022/08/17 05:43:51;;;;;;;5.95;5.43;;;;;;;;;;4974656;28;92407;-70
2022/08/17 05:46:25;;;;;;;5.63;5.10;;;;;;;;;;4974025;28;94896;-70
2022/08/17 05:48:54;;;;;;;5.63;5.10;;;;;;;;;;4976197;28;94255;-70
2022/08/17 05:51:24;;;;;;;6.75;5.90;;;;;;;;;;4996148;28;92909;-70
2022/08/17 05:54:01;;;;;;;8.15;5.22;;;;;;;;;;4974611;28;93129;-70
2022/08/17 05:56:44;;;;;;;5.78;5.38;;;;;;;;;;4989893;28;94157;-70
2022/08/17 05:59:16;;;;;;;6.30;5.72;;;;;;;;;;4995417;28;94097;-70
2022/08/17 06:01:48;;;;;;;5.72;5.38;;;;;;;;;;4993776;28;93256;-70
2022/08/17 06:04:14;;;;;;;;;;;;;;;;;;4995683;28;92093;-70
2022/08/17 06:06:48;;;;;;;6.60;5.85;;;;;;;;;;4992370;28;122507;-70
2022/08/17 06:09:26;;;;;;;5.95;5.45;;;;;;;;;;4978354;28;94175;-70
2022/08/17 06:12:06;;;;;;;6.65;5.88;;;;;;;;;;4973894;28;95463;-70
2022/08/17 06:14:58;;;;;;;6.80;6.25;;;;;;;;;;4991300;28;95487;-70
2022/08/17 06:17:26;;;;;;;6.32;5.88;;;;;;;;;;4986024;28;93346;-70
2022/08/17 06:19:58;;;;;;;7.82;7.00;;;;;;;;;;4979586;28;92638;-70
2022/08/17 06:22:27;;;;;;;7.20;6.70;;;;;;;;;;4981648;28;93468;-70
2022/08/17 06:25:03;;;;;;;7.80;7.30;;;;;;;;;;4984233;28;92598;-70
2022/08/17 06:27:49;;;;;;;7.50;6.97;;;;;;;;;;4976650;28;93782;-71
2022/08/17 06:30:27;;;;;;;8.38;7.68;;;;;;;;;;4978777;28;93678;-70
2022/08/17 06:32:55;;;;;;;13.48;8.77;;;;;;;;;;4991324;28;92634;-70
2022/08/17 06:35:26;;;;;;;10.35;9.20;;;;;;;;;;4991883;28;93274;-70
2022/08/17 06:38:17;;;;;;;10.88;9.27;;;;;;;;;;4996051;28;95510;-70
2022/08/17 06:41:03;;;;;;;10.00;8.95;;;;;;;;;;4991602;28;93469;-71
2022/08/17 06:43:39;;;;;;;11.90;10.13;;;;;;;;;;4985857;28;93861;-71
2022/08/17 06:46:07;;;;;;;10.85;9.82;;;;;;;;;;4994575;28;94028;-71
2022/08/17 06:48:45;;;;;;;10.30;9.40;;;;;;;;;;4977784;28;93969;-71
2022/08/17 06:51:28;;;;;;;11.57;10.48;;;;;;;;;;4990232;28;93582;-70
2022/08/17 06:54:04;;;;;;;11.73;10.63;;;;;;;;;;4980225;28;92579;-72
2022/08/17 06:56:52;;;;;;;11.95;10.70;;;;;;;;;;4984514;28;93220;-70
2022/08/17 06:59:26;;;;;;;11.25;10.20;;;;;;;;;;4976223;28;94032;-70
2022/08/17 07:02:16;;;;;;;11.55;10.45;;;;;;;;;;4978526;28;92529;-70
2022/08/17 07:04:45;;;;;;;12.02;10.85;;;;;;;;;;4980032;28;96681;-70
2022/08/17 07:09:58;;;;;;;11.65;10.57;;;;;;;;;;5005451;28;94020;-70
2022/08/17 07:12:32;;;;;;;11.75;10.60;;;;;;;;;;4978515;28;93548;-70
2022/08/17 07:15:09;;;;;;;12.90;11.60;;;;;;;;;;4999070;28;92965;-70
2022/08/17 07:17:36;;;;;;;11.80;10.70;;;;;;;;;;4995495;28;93956;-70
2022/08/17 07:20:14;;;;;;;12.02;10.93;;;;;;;;;;4987150;28;92792;-70
2022/08/17 07:22:47;;;;;;;11.82;10.73;;;;;;;;;;4976794;28;92685;-70
2022/08/17 07:25:26;;;;;;;11.88;10.73;;;;;;;;;;4975782;28;92955;-70
2022/08/17 07:27:54;;;;;;;12.40;11.27;;;;;;;;;;4985659;28;94357;-70
2022/08/17 07:30:22;;;;;;;12.68;11.55;;;;;;;;;;4983240;28;95634;-70
2022/08/17 07:32:56;;;;;;;14.02;11.68;;;;;;;;;;4977864;28;94076;-70
2022/08/17 07:35:28;;;;;;;13.30;11.18;;;;;;;;;;4974656;28;92493;-70
2022/08/17 07:38:09;;;;;;;12.00;10.93;;;;;;;;;;4975204;28;93381;-70
2022/08/17 07:41:04;;;;;;;14.05;10.55;;;;;;;;;;4975712;28;93421;-70
2022/08/17 07:43:33;;;;;;;12.73;10.93;;;;;;;;;;4979728;28;92800;-70
2022/08/17 07:49:06;;;;;;;13.73;12.32;;;;;;;;;;4980942;28;92663;-70
2022/08/17 07:51:37;;;;;;;16.13;14.43;;;;;;;;;;4998880;28;92428;-70
2022/08/17 07:54:05;;;;;;;15.43;13.95;;;;;;;;;;4982927;28;93290;-70
2022/08/17 07:56:59;;;;;;;15.55;14.18;;;;;;;;;;4989457;28;95009;-70
2022/08/17 07:59:27;;;;;;;16.58;14.98;;;;;;;;;;4988650;28;95855;-70
2022/08/17 08:02:04;;;;;;;17.27;15.63;;;;;;;;;;4986410;28;94212;-70
2022/08/17 08:04:33;;;;;;;20.13;15.73;;;;;;;;;;5002646;28;92508;-70
2022/08/17 08:07:25;;;;;;;15.90;14.43;;;;;;;;;;4975009;28;93991;-70
2022/08/17 08:09:57;;;;;;;17.60;15.80;;;;;;;;;;4984547;28;93425;-69
2022/08/17 08:12:24;;;;;;;17.10;14.98;;;;;;;;;;4995169;28;92966;-69
2022/08/17 08:15:08;;;;;;;17.20;15.30;;;;;;;;;;4983131;28;93946;-69
2022/08/17 08:17:44;;;;;;;15.18;13.63;;;;;;;;;;4986830;28;92886;-70
2022/08/17 08:20:11;;;;;;;12.40;11.18;;;;;;;;;;4975468;28;94197;-70
2022/08/17 08:23:01;;;;;;;16.08;10.75;;;;;;;;;;4973516;28;96454;-69
2022/08/17 08:25:54;;;;;;;10.20;9.35;;;;;;;;;;4993511;28;92469;-70
2022/08/17 08:28:28;;;;;;;10.00;8.95;;;;;;;;;;4975736;28;93512;-69
2022/08/17 08:31:05;;;;;;;9.73;8.80;;;;;;;;;;4989716;28;94075;-69
2022/08/17 08:33:50;;;;;;;8.90;8.20;;;;;;;;;;4982070;28;92334;-69
2022/08/17 08:36:26;;;;;;;8.20;7.35;;;;;;;;;;4995740;28;93759;-69
2022/08/17 08:39:18;;;;;;;13.02;7.78;;;;;;;;;;4999064;28;94114;-69
2022/08/17 08:41:48;;;;;;;7.18;6.68;;;;;;;;;;4995710;28;92932;-69
2022/08/17 08:44:43;;;;;;;11.82;8.30;;;;;;;;;;4995994;28;93901;-69
2022/08/17 08:47:40;;;;;;;10.98;7.55;;;;;;;;;;4981404;28;92551;-71
2022/08/17 08:50:19;;;;;;;7.50;6.90;;;;;;;;;;4975571;28;95678;-71
2022/08/17 08:53:22;;;;;;;10.80;7.07;;;;;;;;;;4995734;28;94417;-71
2022/08/17 08:55:57;;;;;;;7.32;6.78;;;;;;;;;;4995175;28;92397;-71
2022/08/17 08:58:31;;;;;;;7.40;6.90;;;;;;;;;;4996619;28;93938;-71
2022/08/17 09:01:22;;;;;;;7.18;6.57;;;;;;;;;;4978012;28;94131;-72
2022/08/17 09:04:15;;;;;;;7.40;6.80;;;;;;;;;;4991435;28;92538;-72
2022/08/17 09:06:50;;;;;;;6.80;6.20;;;;;;;;;;4975442;28;94487;-69
2022/08/17 09:09:38;;;;;;;6.22;5.72;;;;;;;;;;4995188;28;91828;-69
2022/08/17 09:12:15;;;;;;;8.32;5.55;;;;;;;;;;4984876;28;93809;-70
2022/08/17 09:14:51;;;;;;;6.32;5.68;;;;;;;;;;4975488;28;93578;-69
2022/08/17 09:17:20;;;;;;;5.97;5.38;;;;;;;;;;4972444;28;94923;-70
2022/08/17 09:19:50;;;;;;;6.32;5.82;;;;;;;;;;4980600;28;95269;-70
2022/08/17 09:22:29;;;;;;;5.68;5.28;;;;;;;;;;4995458;28;92400;-69
2022/08/17 09:25:09;;;;;;;6.28;5.68;;;;;;;;;;4997139;28;92507;-70
2022/08/17 09:27:49;;;;;;;5.40;4.90;;;;;;;;;;4978900;28;93001;-70
2022/08/17 09:30:17;;;;;;;6.03;5.50;;;;;;;;;;4975669;28;92331;-70
2022/08/17 09:32:48;;;;;;;6.63;5.70;;;;;;;;;;4974716;28;93354;-70
2022/08/17 09:35:22;;;;;;;7.22;6.60;;;;;;;;;;4988218;28;91715;-70
2022/08/17 09:38:00;;;;;;;7.50;6.72;;;;;;;;;;4989522;28;92462;-70
2022/08/17 09:40:32;;;;;;;12.65;7.80;;;;;;;;;;4993157;28;92998;-69
2022/08/17 09:43:08;;;;;;;9.43;8.63;;;;;;;;;;4975849;28;97520;-69
2022/08/17 09:45:45;;;;;;;8.70;8.00;;;;;;;;;;4974417;28;92485;-71
2022/08/17 09:48:27;;;;;;;10.10;9.05;;;;;;;;;;4976634;28;94045;-70
2022/08/17 09:51:03;;;;;;;9.57;8.43;;;;;;;;;;4979049;28;92429;-70
2022/08/17 09:53:34;;;;;;;10.70;9.77;;;;;;;;;;4975043;28;93061;-69
2022/08/17 09:56:06;;;;;;;10.57;9.73;;;;;;;;;;4974966;28;93716;-69
2022/08/17 09:58:36;;;;;;;10.82;9.80;;;;;;;;;;4974579;28;92394;-69
2022/08/17 10:01:12;;;;;;;11.63;8.13;;;;;;;;;;4993905;28;93333;-68
2022/08/17 10:03:57;;;;;;;12.73;10.70;;;;;;;;;;4976319;28;94317;-68
2022/08/17 10:06:27;;;;;;;9.70;8.80;;;;;;;;;;4994300;28;92915;-68
2022/08/17 10:09:07;;;;;;;13.23;9.75;;;;;;;;;;4984423;28;94848;-70
2022/08/17 10:14:34;;;;;;;8.98;8.27;;;;;;;;;;4974291;28;93050;-70
2022/08/17 10:17:21;;;;;;;9.38;8.35;;;;;;;;;;4975214;28;93344;-69
2022/08/17 10:19:57;;;;;;;9.77;8.80;;;;;;;;;;4973688;28;92389;-70
2022/08/17 10:28:23;;;;;;;6.22;5.80;;;;;;;;;;4974539;28;91709;-70
2022/08/17 10:30:57;;;;;;;7.00;6.38;;;;;;;;;;4974586;28;93259;-70
2022/08/17 10:34:03;;;;;;;7.63;6.85;;;;;;;;;;4975676;28;93396;-71
2022/08/17 10:36:45;;;;;;;7.28;6.53;;;;;;;;;;4996260;28;95781;-69
2022/08/17 10:39:34;;;;;;;8.55;7.30;;;;;;;;;;4992769;28;93559;-69
2022/08/17 10:42:21;;;;;;;8.73;6.63;;;;;;;;;;4972984;28;92904;-69
2022/08/17 10:45:01;;;;;;;8.32;7.53;;;;;;;;;;4993573;28;93973;-69
2022/08/17 10:47:46;;;;;;;8.68;7.90;;;;;;;;;;4993717;28;93427;-69
2022/08/17 10:50:42;;;;;;;9.55;8.63;;;;;;;;;;4982473;28;92414;-71
2022/08/17 10:53:08;;;;;;;9.88;9.07;;;;;;;;;;4970094;28;93036;-72
2022/08/17 10:55:35;;;;;;;10.30;9.30;;;;;;;;;;4977418;28;93188;-72
2022/08/17 10:58:20;;;;;;;14.35;9.98;;;;;;;;;;4994681;28;92465;-69
2022/08/17 11:00:55;;;;;;;14.90;9.85;;;;;;;;;;4995944;28;93013;-70
2022/08/17 11:03:23;;;;;;;11.63;10.43;;;;;;;;;;4991599;28;94935;-69
2022/08/17 11:05:54;;;;;;;11.35;10.15;;;;;;;;;;4993088;28;95588;-69
2022/08/17 11:08:32;;;;;;;12.52;11.32;;;;;;;;;;4993538;28;93251;-70
2022/08/17 11:11:13;;;;;;;13.38;12.07;;;;;;;;;;4990565;28;92422;-69
2022/08/17 11:13:54;;;;;;;14.18;12.82;;;;;;;;;;4980276;28;93913;-71
2022/08/17 11:16:21;;;;;;;;;;;;;;;;;;4996599;28;93473;-69
2022/08/17 11:19:09;;;;;;;14.13;12.73;;;;;;;;;;4984563;28;120327;-69
2022/08/17 11:21:51;;;;;;;13.82;12.45;;;;;;;;;;4982528;28;93335;-69
2022/08/17 11:24:19;;;;;;;13.27;11.97;;;;;;;;;;4998249;28;93470;-69
2022/08/17 11:27:04;;;;;;;18.48;16.60;;;;;;;;;;4994469;28;93166;-69
2022/08/17 11:29:34;;;;;;;14.68;13.18;;;;;;;;;;4976069;28;96669;-69
2022/08/17 11:32:01;;;;;;;18.65;15.50;;;;;;;;;;4976170;28;92418;-69
2022/08/17 11:34:29;;;;;;;17.45;15.80;;;;;;;;;;4976584;28;93006;-69
2022/08/17 11:37:05;;;;;;;17.90;16.05;;;;;;;;;;4976991;28;93193;-69
2022/08/17 11:39:41;;;;;;;20.60;16.65;;;;;;;;;;4995711;28;92401;-69
2022/08/17 11:42:25;;;;;;;17.83;15.95;;;;;;;;;;4987098;28;93714;-69
2022/08/17 11:44:54;;;;;;;19.92;17.90;;;;;;;;;;4979198;28;94272;-70
2022/08/17 11:53:36;;;;;;;31.58;22.33;;;;;;;;;;4976589;28;92453;-69
2022/08/17 11:56:08;;;;;;;24.38;20.75;;;;;;;;;;4972522;28;96949;-70
2022/08/17 11:58:36;;;;;;;;;;;;;;;;;;4984667;28;93605;-72
2022/08/17 12:01:03;;;;;;;35.78;27.35;;;;;;;;;;4983423;28;92598;-70
2022/08/17 12:03:35;;;;;;;32.22;27.45;;;;;;;;;;4998056;28;92681;-71
2022/08/17 12:06:09;;;;;;;37.22;28.20;;;;;;;;;;4990925;28;94016;-70
2022/08/17 12:08:42;;;;;;;28.73;25.63;;;;;;;;;;5004359;28;92329;-71
2022/08/17 12:11:10;;;;;;;29.67;26.25;;;;;;;;;;5002223;28;93561;-71
2022/08/17 12:13:47;;;;;;;29.55;26.30;;;;;;;;;;4975282;28;91745;-71
2022/08/17 12:16:15;;;;;;;27.52;24.67;;;;;;;;;;4986057;28;93175;-71
2022/08/17 12:18:47;;;;;;;31.33;27.65;;;;;;;;;;4986368;28;93132;-71
2022/08/17 12:21:33;;;;;;;29.40;26.13;;;;;;;;;;4977275;28;94878;-71
2022/08/17 12:24:17;;;;;;;30.38;27.30;;;;;;;;;;4976463;28;95671;-71
2022/08/17 12:26:52;;;;;;;29.65;26.60;;;;;;;;;;5004783;28;94661;-71
2022/08/17 12:29:19;;;;;;;28.27;25.35;;;;;;;;;;4975979;28;92475;-71
2022/08/17 12:32:05;;;;;;;29.77;25.83;;;;;;;;;;4978085;28;93970;-70
2022/08/17 12:34:37;;;;;;;28.95;26.05;;;;;;;;;;4991286;28;92533;-71
2022/08/17 12:37:06;;;;;;;33.42;24.10;;;;;;;;;;4995419;28;94258;-69
2022/08/17 12:39:36;;;;;;;28.60;25.63;;;;;;;;;;4995606;28;93319;-70
2022/08/17 12:42:25;;;;;;;28.67;25.77;;;;;;;;;;4994897;28;92363;-71
2022/08/17 12:44:59;;;;;;;29.45;26.48;;;;;;;;;;4995366;28;93623;-70
2022/08/17 12:47:49;;;;;;;29.75;26.63;;;;;;;;;;5009384;28;96015;-70
2022/08/17 12:50:18;;;;;;;32.63;26.95;;;;;;;;;;4975361;28;92633;-70
2022/08/17 12:52:56;;;;;;;31.00;27.88;;;;;;;;;;4978396;28;93191;-70
2022/08/17 12:55:28;;;;;;;33.55;28.95;;;;;;;;;;4990068;28;94154;-71
2022/08/17 12:57:59;;;;;;;33.28;28.42;;;;;;;;;;4974941;28;93791;-71
2022/08/17 13:00:36;;;;;;;34.03;28.77;;;;;;;;;;4975936;28;93201;-71
2022/08/17 13:03:11;;;;;;;30.10;26.95;;;;;;;;;;4975386;28;94748;-70
2022/08/17 13:05:43;;;;;;;31.90;28.60;;;;;;;;;;4981800;28;93052;-71
2022/08/17 13:08:16;;;;;;;32.60;29.27;;;;;;;;;;4977160;28;93279;-71
2022/08/17 13:10:53;;;;;;;35.10;31.33;;;;;;;;;;4978594;28;93100;-71
2022/08/17 13:13:21;;;;;;;34.90;31.02;;;;;;;;;;4972437;28;95897;-72
2022/08/17 13:15:53;;;;;;;32.80;29.55;;;;;;;;;;4973369;28;93203;-72
2022/08/17 13:18:34;;;;;;;32.47;28.95;;;;;;;;;;4978311;28;92462;-71
2022/08/17 13:21:04;;;;;;;35.17;31.27;;;;;;;;;;4986830;28;94204;-70
2022/08/17 13:23:31;;;;;;;37.50;32.05;;;;;;;;;;4981002;28;93051;-70
2022/08/17 13:26:05;;;;;;;22.45;20.38;;;;;;;;;;4974607;28;93993;-71
2022/08/17 13:28:32;;;;;;;35.92;32.13;;;;;;;;;;4981125;28;93305;-70
2022/08/17 13:31:26;;;;;;;35.78;31.90;;;;;;;;;;4987025;28;92353;-70
2022/08/17 13:34:11;;;;;;;39.90;33.70;;;;;;;;;;4984371;28;92339;-70
2022/08/17 13:36:38;;;;;;;38.63;33.78;;;;;;;;;;4973657;28;95621;-70
2022/08/17 13:39:21;;;;;;;38.80;34.63;;;;;;;;;;4973384;28;94899;-69
2022/08/17 13:41:48;;;;;;;46.15;37.58;;;;;;;;;;4976800;28;95522;-69
2022/08/17 13:44:33;;;;;;;39.10;34.70;;;;;;;;;;4984505;28;92541;-70
2022/08/17 13:47:01;;;;;;;48.80;40.55;;;;;;;;;;4982200;28;93334;-70
2022/08/17 13:49:28;;;;;;;40.92;36.25;;;;;;;;;;4993026;28;93279;-69
2022/08/17 13:52:41;;;;;;;40.83;35.95;;;;;;;;;;4980178;28;92890;-70
2022/08/17 13:55:19;;;;;;;39.50;34.45;;;;;;;;;;4973745;28;93979;-71
2022/08/17 13:57:48;;;;;;;47.60;37.80;;;;;;;;;;4973782;28;93281;-70
2022/08/17 14:00:30;;;;;;;40.72;35.95;;;;;;;;;;4977251;28;93105;-71
2022/08/17 14:02:57;;;;;;;46.58;37.88;;;;;;;;;;4987137;28;94961;-71
2022/08/17 14:05:32;;;;;;;47.17;37.92;;;;;;;;;;4978102;28;95338;-70
2022/08/17 14:08:05;;;;;;;39.13;34.35;;;;;;;;;;4975398;28;96315;-71
2022/08/17 14:10:36;;;;;;;39.57;34.73;;;;;;;;;;5006169;28;93406;-71
2022/08/17 14:13:04;;;;;;;48.97;37.33;;;;;;;;;;4972762;28;92547;-71
2022/08/17 14:15:33;;;;;;;42.42;35.72;;;;;;;;;;4977164;28;93244;-71
2022/08/17 14:18:23;;;;;;;38.00;32.35;;;;;;;;;;4979090;28;93263;-71
2022/08/17 14:21:12;;;;;;;37.92;32.78;;;;;;;;;;4986620;28;93093;-71
2022/08/17 14:23:47;;;;;;;37.08;31.90;;;;;;;;;;4989993;28;94091;-71
2022/08/17 14:26:23;;;;;;;34.17;28.67;;;;;;;;;;4998527;28;93237;-71
2022/08/17 14:29:15;;;;;;;34.83;31.08;;;;;;;;;;4978253;28;93330;-71
2022/08/17 14:31:54;;;;;;;35.38;31.88;;;;;;;;;;4987861;28;95739;-71
2022/08/17 14:34:27;;;;;;;39.08;31.52;;;;;;;;;;4974194;28;92628;-71
2022/08/17 14:36:55;;;;;;;34.60;30.75;;;;;;;;;;5005474;28;93618;-71
2022/08/17 14:39:24;;;;;;;35.55;31.90;;;;;;;;;;4974766;28;94315;-71
2022/08/17 14:41:51;;;;;;;34.45;29.60;;;;;;;;;;4973215;28;92770;-71
2022/08/17 14:44:18;;;;;;;30.65;27.55;;;;;;;;;;4973351;28;95131;-71
2022/08/17 14:46:45;;;;;;;33.10;28.73;;;;;;;;;;4973865;28;93948;-70
2022/08/17 14:49:11;;;;;;;33.95;30.38;;;;;;;;;;4996173;28;91840;-71
2022/08/17 14:51:39;;;;;;;33.65;29.85;;;;;;;;;;4977936;28;94204;-71
2022/08/17 14:54:09;;;;;;;30.97;26.50;;;;;;;;;;4982457;28;94151;-71
2022/08/17 14:56:37;;;;;;;29.27;26.13;;;;;;;;;;4975216;28;94680;-70
2022/08/17 14:59:10;;;;;;;29.13;26.23;;;;;;;;;;4977086;28;93362;-71
2022/08/17 15:01:36;;;;;;;32.10;28.75;;;;;;;;;;4974672;28;94033;-72
2022/08/17 15:04:05;;;;;;;30.10;27.25;;;;;;;;;;4980650;28;92859;-72
2022/08/17 15:06:31;;;;;;;31.50;28.20;;;;;;;;;;4976080;28;93998;-71
2022/08/17 15:08:57;;;;;;;30.98;27.77;;;;;;;;;;4995651;28;92511;-71
2022/08/17 15:11:24;;;;;;;31.65;28.25;;;;;;;;;;4998371;28;93193;-70
2022/08/17 15:13:51;;;;;;;27.85;25.00;;;;;;;;;;4984095;28;92931;-71
2022/08/17 15:16:19;;;;;;;25.77;22.92;;;;;;;;;;4975025;28;92362;-72
2022/08/17 15:18:45;;;;;;;21.65;19.23;;;;;;;;;;4977217;28;94182;-71
2022/08/17 15:21:13;;;;;;;23.25;20.83;;;;;;;;;;4975412;28;94797;-72
2022/08/17 15:23:40;;;;;;;26.05;21.92;;;;;;;;;;4974540;28;95569;-73
2022/08/17 15:26:09;;;;;;;26.73;19.17;;;;;;;;;;4979953;28;93211;-72
2022/08/17 15:28:36;;;;;;;24.05;21.45;;;;;;;;;;4992019;28;92542;-72
2022/08/17 15:31:04;;;;;;;23.95;21.73;;;;;;;;;;4975803;28;93065;-72
2022/08/17 15:33:30;;;;;;;22.63;20.00;;;;;;;;;;4989718;28;93329;-74